Time;durP1;ratioP1;P1;durP2;ratioP2;P2;SDS_P1;SDS_P2;PMS_P1;PMS_P2;Temp;Humidity;BMP_temperature;BMP_pressure;BME280_temperature;BME280_humidity;BME280_pressure;Samples;Min_cycle;Max_cycle;Signal;HPM_P1;HPM_P2
2022/03/04 00:01:55;;;;;;;17.02;9.32;;;-2.00;99.90;;;;;;4985936;28;20093;-37
2022/03/04 00:04:21;;;;;;;23.13;11.20;;;-2.10;99.90;;;;;;4986876;28;20043;-36
2022/03/04 00:06:47;;;;;;;16.23;8.07;;;-2.30;99.90;;;;;;4988330;28;20109;-34
2022/03/04 00:09:13;;;;;;;25.67;11.00;;;-2.70;99.90;;;;;;4986318;28;20053;-35
2022/03/04 00:11:38;;;;;;;7.97;6.03;;;-3.00;99.90;;;;;;4988582;28;20026;-37
2022/03/04 00:14:04;;;;;;;14.20;7.22;;;-3.10;99.90;;;;;;4987049;28;20124;-37
2022/03/04 00:16:30;;;;;;;15.60;7.80;;;-3.10;99.90;;;;;;4985859;28;20034;-36
2022/03/04 00:19:09;;;;;;;10.80;6.45;;;-3.20;99.90;;;;;;4988782;28;20064;-37
2022/03/04 00:21:37;;;;;;;17.13;8.32;;;-3.00;99.90;;;;;;4987167;28;20030;-36
2022/03/04 00:24:04;;;;;;;14.40;8.75;;;-2.90;99.90;;;;;;4988291;28;20498;-35
2022/03/04 00:26:30;;;;;;;13.80;8.35;;;-2.80;99.90;;;;;;4987649;28;20038;-37
2022/03/04 00:28:56;;;;;;;16.85;10.52;;;-2.70;99.90;;;;;;4987927;28;20041;-36
2022/03/04 00:31:22;;;;;;;16.73;9.05;;;-2.70;99.90;;;;;;4984365;28;20443;-35
2022/03/04 00:33:48;;;;;;;16.27;8.32;;;-2.60;99.90;;;;;;4985895;28;20039;-37
2022/03/04 00:36:13;;;;;;;19.40;8.85;;;-2.60;99.90;;;;;;4986619;28;20037;-36
2022/03/04 00:38:39;;;;;;;19.92;9.90;;;-2.60;99.90;;;;;;4985299;28;20037;-36
2022/03/04 00:41:04;;;;;;;15.20;9.88;;;-2.50;99.90;;;;;;4986363;28;20031;-36
2022/03/04 00:43:30;;;;;;;15.05;7.10;;;-2.50;99.90;;;;;;4984688;28;20030;-37
2022/03/04 00:45:55;;;;;;;18.58;9.55;;;-2.60;99.90;;;;;;4985695;28;20053;-36
2022/03/04 00:48:21;;;;;;;14.75;8.85;;;-2.80;99.90;;;;;;4984936;28;20092;-37
2022/03/04 00:50:47;;;;;;;12.88;8.23;;;-2.80;99.90;;;;;;4987165;28;20445;-35
2022/03/04 00:53:12;;;;;;;17.58;9.07;;;-2.70;99.90;;;;;;4986549;28;20048;-34
2022/03/04 00:55:38;;;;;;;13.93;9.73;;;-2.70;99.90;;;;;;4984315;28;20118;-36
2022/03/04 00:58:07;;;;;;;13.32;7.43;;;-2.70;99.90;;;;;;4987353;28;20027;-35
2022/03/04 01:00:35;;;;;;;20.50;8.18;;;-2.60;99.90;;;;;;4984005;28;20053;-37
2022/03/04 01:03:02;;;;;;;11.25;7.97;;;-2.70;99.90;;;;;;4985264;28;20038;-35
2022/03/04 01:05:29;;;;;;;13.90;8.70;;;-2.60;99.90;;;;;;4986199;28;20108;-36
2022/03/04 01:07:57;;;;;;;18.58;9.25;;;-2.70;99.90;;;;;;4983709;28;20491;-35
2022/03/04 01:10:23;;;;;;;15.70;7.32;;;-2.60;99.90;;;;;;4983056;28;20042;-36
2022/03/04 01:12:48;;;;;;;11.52;6.88;;;-2.70;99.90;;;;;;4985404;28;20045;-36
2022/03/04 01:15:14;;;;;;;10.45;8.88;;;-2.70;99.90;;;;;;4985553;28;20057;-37
2022/03/04 01:17:40;;;;;;;15.52;7.65;;;-2.80;99.90;;;;;;4984135;28;20030;-36
2022/03/04 01:20:06;;;;;;;12.35;6.57;;;-3.00;99.90;;;;;;4985342;28;20668;-34
2022/03/04 01:22:32;;;;;;;12.60;7.50;;;-3.10;99.90;;;;;;4986711;28;20080;-37
2022/03/04 01:24:58;;;;;;;10.77;6.55;;;-3.20;99.90;;;;;;4985442;28;20043;-36
2022/03/04 01:27:24;;;;;;;9.15;5.45;;;-3.30;99.90;;;;;;4983966;28;20026;-35
2022/03/04 01:29:50;;;;;;;9.00;5.97;;;-3.60;99.90;;;;;;4966469;28;20076;-34
2022/03/04 01:32:15;;;;;;;13.98;8.20;;;-3.70;99.90;;;;;;4984450;28;20503;-36
2022/03/04 01:34:41;;;;;;;10.88;7.43;;;-3.70;99.90;;;;;;4984382;28;20023;-36
2022/03/04 01:37:07;;;;;;;17.70;8.38;;;-3.60;99.90;;;;;;4986030;28;20671;-36
2022/03/04 01:39:33;;;;;;;10.68;6.15;;;-3.60;99.90;;;;;;4987558;28;20105;-36
2022/03/04 01:41:59;;;;;;;8.90;6.60;;;-3.60;99.90;;;;;;4985728;28;20060;-36
2022/03/04 01:44:25;;;;;;;13.45;7.30;;;-3.60;99.90;;;;;;4985027;28;20121;-37
2022/03/04 01:46:51;;;;;;;13.88;7.20;;;-3.60;99.90;;;;;;4984813;28;20037;-36
2022/03/04 01:49:17;;;;;;;18.95;9.10;;;-3.60;99.90;;;;;;4982943;28;20144;-36
2022/03/04 01:51:42;;;;;;;14.27;8.65;;;-3.50;99.90;;;;;;4984036;28;20420;-35
2022/03/04 01:54:08;;;;;;;18.75;8.40;;;-3.40;99.90;;;;;;4982455;28;20121;-36
2022/03/04 01:56:34;;;;;;;11.77;7.13;;;-3.40;99.90;;;;;;4984374;28;20498;-35
2022/03/04 01:59:00;;;;;;;16.90;9.38;;;-3.40;99.90;;;;;;4982831;28;20034;-36
2022/03/04 02:01:25;;;;;;;18.63;7.97;;;-3.40;99.90;;;;;;4981506;28;20081;-34
2022/03/04 02:03:51;;;;;;;12.02;6.85;;;-3.30;99.90;;;;;;4966437;28;20479;-36
2022/03/04 02:06:17;;;;;;;18.70;8.15;;;-3.30;99.90;;;;;;4967646;28;20026;-36
2022/03/04 02:08:43;;;;;;;15.60;7.25;;;-3.30;99.90;;;;;;4983546;28;20062;-35
2022/03/04 02:11:10;;;;;;;15.48;8.65;;;-3.30;99.90;;;;;;4984593;28;20085;-37
2022/03/04 02:13:39;;;;;;;12.20;7.70;;;-3.30;99.90;;;;;;4983980;28;20036;-36
2022/03/04 02:16:26;;;;;;;11.82;7.25;;;-3.30;99.90;;;;;;4984638;28;20812;-36
2022/03/04 02:18:52;;;;;;;17.27;7.22;;;-3.30;99.90;;;;;;4983438;28;20483;-35
2022/03/04 02:21:20;;;;;;;15.57;8.60;;;-3.30;99.90;;;;;;4985552;28;20109;-37
2022/03/04 02:23:47;;;;;;;9.02;6.13;;;-3.40;99.90;;;;;;4983935;28;20026;-34
2022/03/04 02:26:12;;;;;;;10.88;6.38;;;-3.40;99.90;;;;;;4984331;28;20065;-35
2022/03/04 02:28:38;;;;;;;12.75;6.82;;;-3.40;99.90;;;;;;4983220;28;20030;-37
2022/03/04 02:31:04;;;;;;;11.65;8.13;;;-3.40;99.90;;;;;;4981223;28;20526;-35
2022/03/04 02:33:30;;;;;;;9.48;6.68;;;-3.40;99.90;;;;;;4983928;28;20110;-36
2022/03/04 02:35:56;;;;;;;9.95;7.40;;;-3.40;99.90;;;;;;4983382;28;20031;-37
2022/03/04 02:38:24;;;;;;;12.68;6.90;;;-3.40;99.90;;;;;;4982824;28;20038;-34
2022/03/04 02:40:50;;;;;;;11.73;7.78;;;-3.40;99.90;;;;;;4984185;28;20019;-36
2022/03/04 02:43:16;;;;;;;6.60;5.18;;;-3.50;99.90;;;;;;4989008;28;20579;-35
2022/03/04 02:45:41;;;;;;;5.85;5.25;;;-3.60;99.90;;;;;;4990114;28;20026;-35
2022/03/04 02:48:07;;;;;;;9.02;5.90;;;-3.90;99.90;;;;;;4991725;28;20022;-37
2022/03/04 02:50:33;;;;;;;13.93;6.35;;;-4.10;99.90;;;;;;4991344;28;20171;-36
2022/03/04 02:52:58;;;;;;;7.95;5.90;;;-4.20;99.90;;;;;;4991690;28;20399;-36
2022/03/04 02:55:24;;;;;;;9.18;7.07;;;-4.30;99.90;;;;;;4990308;28;20034;-36
2022/03/04 02:57:50;;;;;;;11.95;6.55;;;-4.40;99.90;;;;;;4988857;28;20049;-35
2022/03/04 03:00:16;;;;;;;10.55;5.05;;;-4.60;99.90;;;;;;4989985;28;20033;-36
2022/03/04 03:02:43;;;;;;;7.20;4.53;;;-4.50;99.90;;;;;;4991306;28;20121;-36
2022/03/04 03:05:09;;;;;;;14.70;6.88;;;-4.40;99.90;;;;;;4989295;28;20058;-36
2022/03/04 03:07:35;;;;;;;10.32;7.05;;;-4.40;99.90;;;;;;4990055;28;20081;-36
2022/03/04 03:10:02;;;;;;;9.70;5.72;;;-4.40;99.90;;;;;;4986024;28;20406;-36
2022/03/04 03:12:27;;;;;;;6.60;5.93;;;-4.30;99.90;;;;;;4990791;28;20030;-36
2022/03/04 03:14:53;;;;;;;15.10;7.65;;;-4.20;99.90;;;;;;4991525;28;20034;-36
2022/03/04 03:17:19;;;;;;;11.82;5.90;;;-4.10;99.90;;;;;;4988190;28;20037;-36
2022/03/04 03:19:45;;;;;;;8.70;6.90;;;-4.10;99.90;;;;;;4972049;28;20535;-36
2022/03/04 03:22:10;;;;;;;10.25;6.70;;;-4.10;99.90;;;;;;4988256;28;20706;-35
2022/03/04 03:24:36;;;;;;;9.07;6.15;;;-4.10;99.90;;;;;;4989138;28;20085;-37
2022/03/04 03:27:02;;;;;;;6.78;5.93;;;-4.00;99.90;;;;;;4992037;28;20027;-36
2022/03/04 03:29:28;;;;;;;10.13;7.00;;;-4.00;99.90;;;;;;4990344;28;20038;-36
2022/03/04 03:31:53;;;;;;;15.70;7.20;;;-3.90;99.90;;;;;;4989853;28;20034;-36
2022/03/04 03:34:19;;;;;;;9.82;5.68;;;-4.00;99.90;;;;;;4989621;28;20106;-36
2022/03/04 03:36:45;;;;;;;9.75;7.18;;;-4.00;99.90;;;;;;4989563;28;20030;-35
2022/03/04 03:39:10;;;;;;;10.50;8.07;;;-4.00;99.90;;;;;;4989696;28;20034;-37
2022/03/04 03:41:36;;;;;;;8.68;6.10;;;-4.00;99.90;;;;;;4990040;28;20042;-36
2022/03/04 03:44:03;;;;;;;10.90;6.07;;;-4.00;99.90;;;;;;4988834;28;20034;-37
2022/03/04 03:46:28;;;;;;;12.88;5.63;;;-4.00;99.90;;;;;;4989884;28;20034;-36
2022/03/04 03:48:54;;;;;;;6.78;5.63;;;-4.10;99.90;;;;;;4989990;28;20521;-36
2022/03/04 03:51:20;;;;;;;13.10;6.38;;;-4.10;99.90;;;;;;4990454;28;20030;-35
2022/03/04 03:53:45;;;;;;;13.07;6.57;;;-4.20;99.90;;;;;;4988095;28;20658;-36
2022/03/04 03:56:11;;;;;;;12.48;5.93;;;-4.20;99.90;;;;;;4986542;28;20034;-35
2022/03/04 03:58:37;;;;;;;9.07;6.13;;;-4.20;99.90;;;;;;4986106;28;20033;-36
2022/03/04 04:01:03;;;;;;;7.07;4.78;;;-4.30;99.90;;;;;;4985937;28;20059;-35
2022/03/04 04:03:29;;;;;;;9.52;6.03;;;-4.30;99.90;;;;;;4986206;28;20049;-34
2022/03/04 04:05:55;;;;;;;8.82;5.57;;;-4.30;99.90;;;;;;4983926;28;20042;-34
2022/03/04 04:08:20;;;;;;;7.07;6.03;;;-4.20;99.90;;;;;;4990183;28;20038;-36
2022/03/04 04:10:46;;;;;;;8.38;6.35;;;-4.20;99.90;;;;;;4987254;28;20045;-36
2022/03/04 04:13:12;;;;;;;9.15;6.57;;;-4.20;99.90;;;;;;4985301;28;20058;-36
2022/03/04 04:15:38;;;;;;;17.48;7.05;;;-4.20;99.90;;;;;;4987995;28;20030;-36
2022/03/04 04:18:04;;;;;;;11.15;7.03;;;-4.40;99.90;;;;;;4987961;28;20467;-36
2022/03/04 04:20:30;;;;;;;12.50;8.23;;;-4.50;99.90;;;;;;4988059;28;20474;-35
2022/03/04 04:22:55;;;;;;;13.35;6.35;;;-4.40;99.90;;;;;;4988058;28;20030;-35
2022/03/04 04:25:21;;;;;;;11.32;7.47;;;-4.30;99.90;;;;;;4983034;28;20053;-37
2022/03/04 04:27:47;;;;;;;13.73;7.18;;;-4.30;99.90;;;;;;4988789;28;20157;-34
2022/03/04 04:30:13;;;;;;;11.07;5.60;;;-4.30;99.90;;;;;;4985013;28;20117;-36
2022/03/04 04:32:39;;;;;;;6.75;5.30;;;-4.20;99.90;;;;;;4985237;28;20030;-35
2022/03/04 04:35:05;;;;;;;12.68;6.78;;;-4.20;99.90;;;;;;4969951;28;20088;-36
2022/03/04 04:37:31;;;;;;;12.20;6.63;;;-4.20;99.90;;;;;;4989882;28;20088;-36
2022/03/04 04:39:56;;;;;;;9.85;6.60;;;-4.20;99.90;;;;;;4988410;28;20042;-36
2022/03/04 04:42:22;;;;;;;15.10;6.22;;;-4.20;99.90;;;;;;4985803;28;20503;-36
2022/03/04 04:44:48;;;;;;;13.70;7.60;;;-4.20;99.90;;;;;;4987471;28;20026;-36
2022/03/04 04:47:14;;;;;;;14.50;7.38;;;-4.20;99.90;;;;;;4987322;28;20030;-36
2022/03/04 04:49:39;;;;;;;9.93;6.57;;;-4.20;99.90;;;;;;4987969;28;20035;-36
2022/03/04 04:52:07;;;;;;;10.68;6.15;;;-4.20;99.90;;;;;;4987278;28;20062;-35
2022/03/04 04:54:34;;;;;;;12.45;7.50;;;-4.30;99.90;;;;;;4987232;28;20038;-36
2022/03/04 04:57:00;;;;;;;7.22;5.43;;;-4.40;99.90;;;;;;4986767;28;20022;-36
2022/03/04 04:59:25;;;;;;;13.07;6.82;;;-4.40;99.90;;;;;;4984545;28;20037;-37
2022/03/04 05:01:51;;;;;;;6.47;5.43;;;-4.50;99.90;;;;;;4987987;28;20066;-36
2022/03/04 05:04:17;;;;;;;11.80;6.45;;;-4.50;99.90;;;;;;4988480;28;20089;-36
2022/03/04 05:06:42;;;;;;;15.77;6.65;;;-4.50;99.90;;;;;;4970404;28;20110;-36
2022/03/04 05:09:08;;;;;;;12.68;5.88;;;-4.50;99.90;;;;;;4987474;28;20103;-34
2022/03/04 05:11:35;;;;;;;7.65;6.50;;;-4.70;99.90;;;;;;4984909;28;20026;-36
2022/03/04 05:14:00;;;;;;;11.45;7.07;;;-4.70;99.90;;;;;;4986665;28;20100;-36
2022/03/04 05:16:27;;;;;;;20.05;7.75;;;-4.60;99.90;;;;;;4987021;28;20414;-35
2022/03/04 05:18:52;;;;;;;16.15;7.50;;;-4.80;99.90;;;;;;4969639;28;21082;-36
2022/03/04 05:21:19;;;;;;;10.52;6.03;;;-5.10;99.90;;;;;;4988737;28;20030;-36
2022/03/04 05:23:59;;;;;;;11.27;6.57;;;-5.00;99.90;;;;;;4979852;28;20565;-37
2022/03/04 05:26:45;;;;;;;10.68;6.60;;;-5.00;99.90;;;;;;4985016;28;20514;-35
2022/03/04 05:29:12;;;;;;;8.75;7.05;;;-4.90;99.90;;;;;;4988734;28;20044;-36
2022/03/04 05:31:39;;;;;;;11.80;7.20;;;-4.90;99.90;;;;;;4983544;28;20030;-34
2022/03/04 05:34:06;;;;;;;17.43;6.70;;;-4.90;99.90;;;;;;4984715;28;20038;-36
2022/03/04 05:36:33;;;;;;;11.70;6.38;;;-5.00;99.90;;;;;;4987062;28;20022;-35
2022/03/04 05:38:58;;;;;;;9.70;6.68;;;-5.00;99.90;;;;;;4989064;28;20026;-37
2022/03/04 05:41:25;;;;;;;14.35;6.22;;;-4.90;99.90;;;;;;4987340;28;20574;-35
2022/03/04 05:43:51;;;;;;;13.20;7.28;;;-5.00;99.90;;;;;;4988040;28;20069;-35
2022/03/04 05:46:17;;;;;;;9.65;5.85;;;-4.90;99.90;;;;;;4984420;28;20030;-35
2022/03/04 05:48:43;;;;;;;9.68;8.00;;;-4.90;99.90;;;;;;4988012;28;20066;-35
2022/03/04 05:51:10;;;;;;;12.10;7.75;;;-5.00;99.90;;;;;;4987488;28;20062;-37
2022/03/04 05:53:36;;;;;;;13.63;7.25;;;-4.90;99.90;;;;;;4986644;28;20134;-36
2022/03/04 05:56:07;;;;;;;8.88;7.18;;;-4.70;99.90;;;;;;4987549;28;20149;-35
2022/03/04 05:58:33;;;;;;;11.52;6.63;;;-4.70;99.90;;;;;;4986159;28;20029;-36
2022/03/04 06:00:58;;;;;;;6.75;5.60;;;-4.60;99.90;;;;;;4984662;28;20030;-36
2022/03/04 06:03:24;;;;;;;6.88;4.72;;;-4.60;99.90;;;;;;4984846;28;20525;-34
2022/03/04 06:05:50;;;;;;;8.02;5.30;;;-4.60;99.90;;;;;;4986513;28;20040;-35
2022/03/04 06:08:15;;;;;;;9.43;6.85;;;-4.70;99.90;;;;;;4984259;28;20050;-36
2022/03/04 06:10:41;;;;;;;9.75;6.45;;;-4.80;99.90;;;;;;4966269;28;20034;-35
2022/03/04 06:13:07;;;;;;;8.02;6.43;;;-4.80;99.90;;;;;;4986744;28;20074;-37
2022/03/04 06:15:33;;;;;;;14.20;7.72;;;-4.80;99.90;;;;;;4984930;28;20034;-34
2022/03/04 06:17:58;;;;;;;18.70;7.53;;;-4.80;99.90;;;;;;4984829;28;20029;-34
2022/03/04 06:20:24;;;;;;;14.30;8.45;;;-4.60;99.90;;;;;;4986279;28;20487;-35
2022/03/04 06:22:50;;;;;;;8.00;7.18;;;-4.50;99.90;;;;;;4984256;28;20101;-35
2022/03/04 06:25:15;;;;;;;12.95;7.10;;;-4.50;99.90;;;;;;4983666;28;20034;-36
2022/03/04 06:27:56;;;;;;;7.75;5.47;;;-4.40;99.90;;;;;;4985443;28;20030;-36
2022/03/04 06:30:23;;;;;;;7.97;4.95;;;-4.40;99.90;;;;;;4985000;28;20037;-35
2022/03/04 06:32:50;;;;;;;18.15;9.02;;;-4.40;99.90;;;;;;4985919;28;20286;-35
2022/03/04 06:35:16;;;;;;;9.38;6.75;;;-4.50;99.90;;;;;;4985781;28;20033;-35
2022/03/04 06:37:42;;;;;;;14.52;7.88;;;-4.50;99.90;;;;;;4987115;28;20117;-36
2022/03/04 06:40:08;;;;;;;12.93;7.25;;;-4.50;99.90;;;;;;4983996;28;20490;-36
2022/03/04 06:42:34;;;;;;;10.80;6.28;;;-4.60;99.90;;;;;;4988255;28;20511;-37
2022/03/04 06:45:00;;;;;;;17.77;9.20;;;-4.50;99.90;;;;;;4968088;28;20144;-34
2022/03/04 06:47:25;;;;;;;9.18;7.13;;;-4.40;99.90;;;;;;4985000;28;20057;-34
2022/03/04 06:49:51;;;;;;;10.75;6.65;;;-4.20;99.90;;;;;;4982729;28;20066;-37
2022/03/04 06:52:17;;;;;;;17.35;8.25;;;-4.00;99.90;;;;;;4985308;28;20128;-36
2022/03/04 06:54:43;;;;;;;12.95;8.00;;;-3.80;99.90;;;;;;4985158;28;20038;-36
2022/03/04 06:57:08;;;;;;;20.85;10.30;;;-3.60;99.90;;;;;;4985081;28;20033;-36
2022/03/04 06:59:34;;;;;;;17.48;9.50;;;-3.40;99.90;;;;;;4986361;28;20037;-35
2022/03/04 07:02:00;;;;;;;14.02;8.70;;;-3.30;99.90;;;;;;4979540;28;20053;-35
2022/03/04 07:04:26;;;;;;;18.23;9.57;;;-3.20;99.90;;;;;;4982383;28;20376;-35
2022/03/04 07:06:52;;;;;;;16.02;9.25;;;-3.10;99.90;;;;;;4987001;28;20031;-36
2022/03/04 07:09:18;;;;;;;24.40;11.57;;;-3.00;99.90;;;;;;4984761;28;20073;-35
2022/03/04 07:11:43;;;;;;;23.88;11.65;;;-2.90;99.90;;;;;;4983019;28;20030;-34
2022/03/04 07:14:09;;;;;;;17.77;11.35;;;-2.90;99.90;;;;;;4985821;28;20776;-35
2022/03/04 07:16:35;;;;;;;15.43;10.98;;;-2.80;99.90;;;;;;4983488;28;20025;-36
2022/03/04 07:19:02;;;;;;;16.20;10.20;;;-2.70;99.90;;;;;;4983047;28;20034;-37
2022/03/04 07:21:27;;;;;;;23.08;12.10;;;-2.60;99.90;;;;;;4987015;28;20147;-37
2022/03/04 07:23:54;;;;;;;24.98;13.20;;;-2.50;99.90;;;;;;4986467;28;20125;-35
2022/03/04 07:26:20;;;;;;;17.92;11.27;;;-2.40;99.90;;;;;;4964007;28;20048;-35
2022/03/04 07:28:46;;;;;;;26.00;11.43;;;-2.30;99.90;;;;;;4986760;28;20109;-36
2022/03/04 07:31:12;;;;;;;26.38;12.45;;;-2.20;99.90;;;;;;4988278;28;20080;-36
2022/03/04 07:33:38;;;;;;;21.13;11.32;;;-2.10;99.90;;;;;;4988574;28;20476;-36
2022/03/04 07:36:04;;;;;;;22.90;11.65;;;-2.00;99.90;;;;;;4988290;28;20077;-36
2022/03/04 07:38:31;;;;;;;18.38;9.23;;;-1.90;99.90;;;;;;4989707;28;20929;-36
2022/03/04 07:41:00;;;;;;;27.75;11.90;;;-1.80;99.90;;;;;;4986850;28;20451;-36
2022/03/04 07:43:26;;;;;;;23.90;12.02;;;-1.70;99.90;;;;;;4988137;28;20031;-34
2022/03/04 07:45:52;;;;;;;24.67;12.55;;;-1.60;99.90;;;;;;4987838;28;20030;-36
2022/03/04 07:48:18;;;;;;;16.55;9.63;;;-1.50;99.90;;;;;;4988415;28;20467;-35
2022/03/04 07:50:47;;;;;;;26.60;13.57;;;-1.40;99.90;;;;;;4990858;28;20038;-35
2022/03/04 07:53:13;;;;;;;29.33;13.75;;;-1.30;99.90;;;;;;4987828;28;20413;-35
2022/03/04 07:55:39;;;;;;;30.10;13.35;;;-1.30;99.90;;;;;;4989096;28;20042;-35
2022/03/04 07:58:04;;;;;;;28.65;13.32;;;-1.10;99.90;;;;;;4988402;28;20113;-34
2022/03/04 08:00:30;;;;;;;25.02;13.77;;;-0.90;99.90;;;;;;4982674;28;20034;-36
2022/03/04 08:02:57;;;;;;;28.77;14.48;;;-0.80;99.90;;;;;;4989855;28;20058;-34
2022/03/04 08:05:23;;;;;;;29.77;13.75;;;-0.60;99.90;;;;;;4990234;28;20065;-36
2022/03/04 08:07:49;;;;;;;35.80;17.42;;;-0.50;99.90;;;;;;4988219;28;22622;-34
2022/03/04 08:10:15;;;;;;;30.73;13.88;;;-0.40;99.90;;;;;;4987717;28;20070;-35
2022/03/04 08:12:41;;;;;;;24.65;12.82;;;-0.40;99.90;;;;;;4969274;28;21023;-36
2022/03/04 08:15:11;;;;;;;24.60;13.15;;;-0.30;99.90;;;;;;4988545;28;20031;-36
2022/03/04 08:17:41;;;;;;;27.48;13.55;;;-0.20;99.90;;;;;;4985223;28;20460;-35
2022/03/04 08:20:07;;;;;;;22.13;10.38;;;-0.10;99.90;;;;;;4992192;28;20083;-36
2022/03/04 08:22:33;;;;;;;27.38;13.23;;;0.10;99.90;;;;;;4986394;28;20141;-36
2022/03/04 08:24:59;;;;;;;25.52;12.77;;;0.20;99.90;;;;;;4989845;28;20086;-36
2022/03/04 08:27:24;;;;;;;31.10;13.20;;;0.30;99.90;;;;;;4990639;28;20081;-34
2022/03/04 08:29:50;;;;;;;27.58;13.52;;;0.30;99.90;;;;;;4967937;28;20049;-36
2022/03/04 08:32:22;;;;;;;22.58;11.25;;;0.50;99.90;;;;;;4988586;28;20034;-36
2022/03/04 08:34:48;;;;;;;25.25;13.02;;;0.60;99.90;;;;;;4984976;28;20479;-36
2022/03/04 08:37:13;;;;;;;23.70;12.90;;;0.80;99.90;;;;;;4986092;28;20112;-36
2022/03/04 08:39:39;;;;;;;25.42;13.38;;;0.90;99.90;;;;;;4989477;28;20498;-35
2022/03/04 08:42:05;;;;;;;29.88;13.48;;;1.00;99.90;;;;;;4988232;28;20120;-36
2022/03/04 08:44:30;;;;;;;21.77;11.70;;;1.10;99.90;;;;;;4987201;28;20030;-36
2022/03/04 08:46:56;;;;;;;22.40;11.25;;;1.20;99.90;;;;;;4988625;28;20125;-36
2022/03/04 08:49:22;;;;;;;26.73;12.23;;;1.40;99.90;;;;;;4985140;28;20030;-37
2022/03/04 08:51:47;;;;;;;21.10;11.70;;;1.50;99.90;;;;;;4966787;28;20031;-36
2022/03/04 08:54:13;;;;;;;24.05;10.30;;;1.60;99.90;;;;;;4986682;28;20038;-37
2022/03/04 08:56:38;;;;;;;21.52;10.32;;;1.90;95.20;;;;;;4985201;28;20030;-36
2022/03/04 08:59:04;;;;;;;21.95;11.32;;;2.00;93.90;;;;;;4986159;28;20038;-36
2022/03/04 09:01:30;;;;;;;29.33;11.65;;;2.10;88.90;;;;;;4985763;28;20033;-36
2022/03/04 09:03:56;;;;;;;23.05;11.30;;;2.10;80.30;;;;;;4987418;28;20499;-37
2022/03/04 09:06:22;;;;;;;19.73;10.85;;;2.00;84.50;;;;;;4987399;28;20047;-36
2022/03/04 09:08:47;;;;;;;24.05;11.30;;;2.20;72.00;;;;;;4986549;28;20023;-37
2022/03/04 09:11:13;;;;;;;24.48;11.80;;;2.30;80.20;;;;;;4986745;28;20128;-35
2022/03/04 09:13:39;;;;;;;22.75;12.43;;;2.40;76.80;;;;;;4987785;28;20041;-35
2022/03/04 09:16:04;;;;;;;18.17;10.73;;;2.30;70.00;;;;;;4988026;28;20027;-36
2022/03/04 09:18:30;;;;;;;23.23;11.48;;;2.30;71.90;;;;;;4985952;28;20023;-36
2022/03/04 09:20:56;;;;;;;21.95;11.35;;;2.30;67.20;;;;;;4987363;28;20046;-36
2022/03/04 09:23:22;;;;;;;25.25;12.43;;;2.40;75.30;;;;;;4988612;28;20113;-36
2022/03/04 09:25:48;;;;;;;23.10;10.98;;;2.60;79.10;;;;;;4983575;28;20530;-35
2022/03/04 09:28:15;;;;;;;22.20;11.40;;;2.70;73.20;;;;;;4987265;28;20035;-35
2022/03/04 09:30:41;;;;;;;23.73;11.68;;;2.70;70.00;;;;;;4986269;28;20031;-37
2022/03/04 09:33:07;;;;;;;24.92;12.02;;;2.60;67.10;;;;;;4984881;28;20105;-34
2022/03/04 09:35:32;;;;;;;30.75;13.65;;;2.60;68.70;;;;;;4982199;28;20840;-36
2022/03/04 09:37:58;;;;;;;19.63;11.63;;;2.80;70.60;;;;;;4983529;28;20125;-37
2022/03/04 09:40:24;;;;;;;22.30;11.98;;;2.80;71.50;;;;;;4985574;28;20394;-36
2022/03/04 09:42:49;;;;;;;27.58;12.23;;;2.90;71.80;;;;;;4984106;28;20041;-34
2022/03/04 09:45:15;;;;;;;30.20;14.02;;;3.00;68.90;;;;;;4986288;28;20034;-35
2022/03/04 09:47:43;;;;;;;23.00;12.55;;;3.00;67.80;;;;;;4984772;28;20117;-35
2022/03/04 09:50:09;;;;;;;21.92;11.02;;;3.00;67.30;;;;;;4988225;28;20514;-36
2022/03/04 09:52:35;;;;;;;30.00;11.77;;;3.10;66.10;;;;;;4986515;28;20153;-36
2022/03/04 09:55:02;;;;;;;22.40;11.45;;;3.20;68.10;;;;;;4968708;28;20152;-36
2022/03/04 09:57:28;;;;;;;26.98;12.45;;;3.30;64.70;;;;;;4983724;28;20018;-37
2022/03/04 09:59:54;;;;;;;30.70;13.05;;;3.30;62.60;;;;;;4985237;28;20612;-37
2022/03/04 10:02:20;;;;;;;24.85;11.77;;;3.30;66.50;;;;;;4983389;28;20723;-36
2022/03/04 10:04:45;;;;;;;21.50;11.10;;;3.50;69.80;;;;;;4966928;28;20703;-36
2022/03/04 10:07:16;;;;;;;24.08;11.05;;;3.60;70.90;;;;;;4966037;28;20027;-37
2022/03/04 10:09:47;;;;;;;20.83;10.35;;;3.80;62.40;;;;;;4966083;28;20036;-37
2022/03/04 10:12:14;;;;;;;21.23;11.43;;;3.90;62.30;;;;;;4965002;28;20089;-37
2022/03/04 10:14:58;;;;;;;22.42;11.05;;;4.10;61.80;;;;;;4978514;28;20748;-36
2022/03/04 10:17:25;;;;;;;19.20;11.25;;;4.00;58.50;;;;;;4963480;28;20765;-36
2022/03/04 10:19:55;;;;;;;24.65;11.27;;;4.00;56.20;;;;;;4968260;28;20124;-36
2022/03/04 10:22:22;;;;;;;21.38;11.80;;;4.00;56.90;;;;;;4973127;28;20054;-37
2022/03/04 10:24:49;;;;;;;29.75;12.38;;;4.10;56.70;;;;;;4969083;28;20065;-34
2022/03/04 10:27:16;;;;;;;22.88;11.18;;;4.00;56.50;;;;;;4966570;28;20042;-35
2022/03/04 10:29:42;;;;;;;23.83;11.55;;;4.10;54.60;;;;;;4965278;28;20436;-36
2022/03/04 10:32:18;;;;;;;25.33;11.70;;;4.10;53.80;;;;;;4966176;28;20039;-35
2022/03/04 10:35:08;;;;;;;23.98;11.25;;;4.30;54.80;;;;;;4965579;28;20384;-34
2022/03/04 10:37:43;;;;;;;33.35;15.45;;;4.40;54.00;;;;;;4967981;28;20023;-36
2022/03/04 10:40:19;;;;;;;20.98;10.50;;;4.60;54.70;;;;;;4965474;28;20078;-36
2022/03/04 10:42:49;;;;;;;28.13;11.80;;;4.50;52.40;;;;;;4965699;28;20041;-36
2022/03/04 10:45:17;;;;;;;22.88;11.10;;;4.50;53.20;;;;;;4966972;28;20027;-37
2022/03/04 10:47:57;;;;;;;20.33;9.75;;;4.70;52.40;;;;;;4967305;28;20078;-35
2022/03/04 10:50:34;;;;;;;20.45;9.55;;;4.80;52.30;;;;;;4964447;28;20030;-35
2022/03/04 10:53:10;;;;;;;22.27;10.88;;;4.80;50.80;;;;;;4967447;28;20031;-36
2022/03/04 10:55:39;;;;;;;21.48;11.20;;;4.90;52.80;;;;;;4979722;28;20023;-36
2022/03/04 10:58:19;;;;;;;21.48;10.65;;;5.10;54.30;;;;;;4964151;28;20085;-37
2022/03/04 11:00:50;;;;;;;23.33;11.38;;;4.90;51.00;;;;;;4964435;28;20051;-36
2022/03/04 11:03:21;;;;;;;22.17;11.65;;;5.10;54.30;;;;;;4965935;28;20031;-35
2022/03/04 11:05:49;;;;;;;23.75;11.68;;;5.20;52.20;;;;;;4989022;28;20023;-36
2022/03/04 11:08:15;;;;;;;23.98;11.73;;;5.10;51.10;;;;;;4955830;28;20029;-35
2022/03/04 11:10:41;;;;;;;37.08;11.57;;;5.10;51.00;;;;;;4990723;28;20086;-36
2022/03/04 11:13:13;;;;;;;22.90;12.23;;;5.20;51.40;;;;;;4989030;28;20050;-37
2022/03/04 11:15:40;;;;;;;22.15;11.35;;;5.20;50.90;;;;;;4987134;28;20081;-36
2022/03/04 11:18:08;;;;;;;23.95;12.50;;;5.20;51.80;;;;;;4991671;28;20107;-36
2022/03/04 11:20:38;;;;;;;27.38;12.57;;;5.30;50.30;;;;;;4991051;28;20050;-37
2022/03/04 11:23:05;;;;;;;23.73;11.00;;;5.20;48.90;;;;;;4990450;28;20049;-36
2022/03/04 11:25:36;;;;;;;22.70;11.93;;;5.20;48.20;;;;;;4986748;28;20334;-36
2022/03/04 11:28:14;;;;;;;23.20;10.90;;;5.40;51.60;;;;;;4985759;28;20034;-35
2022/03/04 11:30:47;;;;;;;21.95;11.50;;;5.40;48.00;;;;;;4986369;28;20418;-36
2022/03/04 11:33:22;;;;;;;22.95;11.85;;;5.20;49.50;;;;;;4987450;28;20604;-36
2022/03/04 11:35:55;;;;;;;26.02;12.23;;;5.20;49.50;;;;;;4986672;28;20113;-36
2022/03/04 11:38:48;;;;;;;22.25;10.43;;;5.20;50.40;;;;;;4989073;28;20030;-36
2022/03/04 11:41:26;;;;;;;24.00;10.57;;;5.10;48.50;;;;;;4985226;28;20033;-36
2022/03/04 11:43:54;;;;;;;19.60;10.20;;;5.20;48.90;;;;;;4990590;28;20034;-35
2022/03/04 11:46:25;;;;;;;20.00;10.48;;;5.20;49.70;;;;;;4972173;28;20551;-35
2022/03/04 11:49:28;;;;;;;18.30;10.15;;;5.40;48.10;;;;;;4987446;28;20049;-36
2022/03/04 11:52:09;;;;;;;19.50;9.70;;;5.40;50.10;;;;;;4987387;28;20102;-36
2022/03/04 11:54:39;;;;;;;20.83;9.90;;;5.50;47.20;;;;;;4988343;28;20803;-36
2022/03/04 11:57:44;;;;;;;15.68;8.90;;;5.50;46.70;;;;;;4971226;28;20495;-34
2022/03/04 12:00:12;;;;;;;20.42;10.68;;;5.50;44.80;;;;;;4973536;28;20173;-35
2022/03/04 12:02:48;;;;;;;18.65;10.60;;;5.40;45.70;;;;;;4986329;28;20042;-37
2022/03/04 12:05:21;;;;;;;23.02;10.38;;;5.40;47.20;;;;;;4984680;28;20054;-37
2022/03/04 12:07:54;;;;;;;21.33;10.05;;;5.40;46.50;;;;;;4983611;28;20041;-36
2022/03/04 12:10:27;;;;;;;24.30;10.38;;;5.20;46.20;;;;;;4983388;28;20778;-37
2022/03/04 12:13:01;;;;;;;21.15;10.77;;;5.40;47.50;;;;;;4986915;28;20037;-36
2022/03/04 12:15:44;;;;;;;18.30;9.35;;;5.50;47.80;;;;;;4987093;28;20040;-37
2022/03/04 12:18:30;;;;;;;25.10;10.60;;;5.40;45.60;;;;;;4987653;28;22264;-37
2022/03/04 12:20:59;;;;;;;18.95;8.77;;;5.40;45.20;;;;;;4987197;28;20046;-36
2022/03/04 12:23:33;;;;;;;25.70;10.32;;;5.40;44.80;;;;;;4986609;28;20128;-37
2022/03/04 12:25:58;;;;;;;23.15;9.50;;;5.30;45.70;;;;;;4987430;28;20062;-36
2022/03/04 12:28:53;;;;;;;21.30;9.68;;;5.30;44.60;;;;;;4989402;28;20124;-37
2022/03/04 12:31:24;;;;;;;17.27;8.95;;;5.50;45.50;;;;;;4986039;28;20066;-37
2022/03/04 12:33:56;;;;;;;17.70;9.98;;;5.50;45.20;;;;;;4989196;28;20037;-37
2022/03/04 12:36:24;;;;;;;21.77;9.65;;;5.50;46.60;;;;;;4985836;28;20038;-36
2022/03/04 12:38:52;;;;;;;21.33;10.60;;;5.40;45.50;;;;;;4989155;28;20101;-36
2022/03/04 12:41:22;;;;;;;22.40;10.52;;;5.40;45.80;;;;;;4984361;28;20035;-36